Copyright


This website and its content is copyright of 356 (Felixstowe) Squadron - (c) 356 (Felixstowe) Squadron 2016. All rights reserved. Any redistribution or reproduction of part or all of the contents in any form is prohibited other than the following: you may print or download to a local hard disk extracts for your personal and non-commercial use only you may copy the content to individual third parties for their personal use, but only if you acknowledge the website as the source of the material You may not, except with our express written permission, distribute or commercially exploit the content. Nor may you transmit it or store it in any other website or other form of electronic retrieval system.

 

Our Location

356 (Felixstowe) Squadron SHQ,
Carr Road,
Felixstowe,
IP11 3RX

Tel: 01394 673419 Mon/Wed Evenings

email: This email address is being protected from spambots. You need JavaScript enabled to view it.

Air Cadet Magazine

Fx Cdt Futurepilot B&W

Aviation Weather - Wattisham

[source: ADDS]
METAR
EGUW 261150Z 14015KT 9999 FEW045 22/12 Q1020 BLU NOSIG =
TAF
TAF EGUW 261038Z 2612/2619 12010KT CAVOK =